Time;durP1;ratioP1;P1;durP2;ratioP2;P2;SDS_P1;SDS_P2;PMS_P1;PMS_P2;Temp;Humidity;BMP_temperature;BMP_pressure;BME280_temperature;BME280_humidity;BME280_pressure;Samples;Min_cycle;Max_cycle;Signal;HPM_P1;HPM_P2
2023/04/25 00:01:04;;;;;;;;;;;;;;;5.35;nan;99130.03;5039352;28;20382;-77
2023/04/25 00:03:48;;;;;;;;;;;;;;;5.11;nan;99129.75;5039312;28;20339;-76
2023/04/25 00:06:35;;;;;;;;;;;;;;;5.10;nan;99124.72;5040368;28;20008;-77
2023/04/25 00:09:20;;;;;;;;;;;;;;;5.38;nan;99124.50;5038808;28;19962;-76
2023/04/25 00:12:04;;;;;;;;;;;;;;;5.24;nan;99129.31;5039631;28;19923;-76
2023/04/25 00:14:50;;;;;;;;;;;;;;;5.39;nan;99126.91;5044125;28;20009;-76
2023/04/25 00:17:34;;;;;;;;;;;;;;;5.28;nan;99130.63;5044015;28;19977;-76
2023/04/25 00:20:18;;;;;;;;;;;;;;;5.33;nan;99124.16;5042316;28;20026;-77
2023/04/25 00:23:02;;;;;;;;;;;;;;;5.48;nan;99119.94;5043852;28;20066;-77
2023/04/25 00:25:47;;;;;;;;;;;;;;;5.26;nan;99118.75;5038113;28;19978;-75
2023/04/25 00:28:31;;;;;;;;;;;;;;;5.12;nan;99125.38;5036889;28;19935;-78
2023/04/25 00:31:15;;;;;;;;;;;;;;;5.22;nan;99126.06;5043301;28;19924;-77
2023/04/25 00:33:59;;;;;;;;;;;;;;;5.15;nan;99128.47;5039590;28;19935;-77
2023/04/25 00:36:43;;;;;;;;;;;;;;;4.84;nan;99138.59;5043229;28;20286;-77
2023/04/25 00:39:27;;;;;;;;;;;;;;;5.16;nan;99137.09;5042536;28;20018;-79
2023/04/25 00:42:11;;;;;;;;;;;;;;;4.92;nan;99136.03;5044042;28;19923;-79
2023/04/25 00:44:56;;;;;;;;;;;;;;;4.96;nan;99142.56;5047323;28;20420;-76
2023/04/25 00:47:40;;;;;;;;;;;;;;;5.17;nan;99137.91;5040330;28;19919;-76
2023/04/25 00:50:24;;;;;;;;;;;;;;;5.21;nan;99134.00;5038444;28;19924;-76
2023/04/25 00:53:09;;;;;;;;;;;;;;;4.82;nan;99145.72;5042743;28;19938;-77
2023/04/25 00:55:54;;;;;;;;;;;;;;;5.03;nan;99147.13;5040159;28;20325;-77
2023/04/25 00:58:38;;;;;;;;;;;;;;;4.83;nan;99139.56;5036745;28;20356;-77
2023/04/25 01:01:22;;;;;;;;;;;;;;;5.07;nan;99132.81;5044219;28;19919;-78
2023/04/25 01:04:06;;;;;;;;;;;;;;;4.90;nan;99142.34;5040424;28;19959;-77
2023/04/25 01:06:51;;;;;;;;;;;;;;;4.80;nan;99142.47;5041329;28;19966;-77
2023/04/25 01:09:35;;;;;;;;;;;;;;;4.84;nan;99149.00;5039934;28;19920;-78
2023/04/25 01:12:19;;;;;;;;;;;;;;;4.81;nan;99149.28;5043172;28;19925;-78
2023/04/25 01:15:04;;;;;;;;;;;;;;;5.02;nan;99142.91;5038104;28;19963;-77
2023/04/25 01:17:49;;;;;;;;;;;;;;;4.72;nan;99141.47;5048352;28;19919;-77
2023/04/25 01:20:33;;;;;;;;;;;;;;;4.55;nan;99137.94;5042601;28;19935;-76
2023/04/25 01:23:18;;;;;;;;;;;;;;;4.50;nan;99134.16;5045109;28;19920;-77
2023/04/25 01:26:03;;;;;;;;;;;;;;;4.67;nan;99143.69;5038886;28;20287;-77
2023/04/25 01:28:47;;;;;;;;;;;;;;;4.63;nan;99144.97;5041971;28;20421;-76
2023/04/25 01:31:32;;;;;;;;;;;;;;;4.85;nan;99141.03;5040423;28;19932;-77
2023/04/25 01:34:15;;;;;;;;;;;;;;;4.86;nan;99126.22;5039483;28;19924;-77
2023/04/25 01:37:01;;;;;;;;;;;;;;;4.97;nan;99136.38;5046948;28;19995;-77
2023/04/25 01:39:45;;;;;;;;;;;;;;;4.72;nan;99128.47;5042302;28;19962;-78
2023/04/25 01:42:29;;;;;;;;;;;;;;;4.76;nan;99133.34;5042565;28;19966;-78
2023/04/25 01:45:13;;;;;;;;;;;;;;;4.72;nan;99136.25;5038111;28;19923;-78
2023/04/25 01:47:59;;;;;;;;;;;;;;;4.91;nan;99134.38;5039689;28;19939;-78
2023/04/25 01:50:43;;;;;;;;;;;;;;;4.78;nan;99140.00;5042805;28;19924;-77
2023/04/25 01:53:27;;;;;;;;;;;;;;;4.40;nan;99140.28;5039931;28;19920;-77
2023/04/25 01:56:11;;;;;;;;;;;;;;;4.72;nan;99136.25;5042018;28;20287;-78
2023/04/25 01:58:55;;;;;;;;;;;;;;;4.78;nan;99139.22;5038382;28;19923;-78
2023/04/25 02:01:39;;;;;;;;;;;;;;;4.78;nan;99144.41;5041216;28;20294;-77
2023/04/25 02:04:23;;;;;;;;;;;;;;;4.72;nan;99138.88;5037084;28;19932;-77
2023/04/25 02:07:07;;;;;;;;;;;;;;;4.85;nan;99143.63;5039324;28;20306;-77
2023/04/25 02:09:51;;;;;;;;;;;;;;;4.93;nan;99147.25;5040837;28;20255;-77
2023/04/25 02:12:35;;;;;;;;;;;;;;;4.61;nan;99144.31;5041170;28;20006;-78
2023/04/25 02:15:19;;;;;;;;;;;;;;;4.48;nan;99138.69;5042159;28;19924;-79
2023/04/25 02:18:03;;;;;;;;;;;;;;;4.76;nan;99147.16;5041595;28;20382;-76
2023/04/25 02:20:47;;;;;;;;;;;;;;;4.87;nan;99148.66;5042179;28;19919;-77
2023/04/25 02:23:31;;;;;;;;;;;;;;;4.74;nan;99149.09;5037782;28;19920;-77
2023/04/25 02:26:15;;;;;;;;;;;;;;;4.82;nan;99154.34;5044079;28;19962;-77
2023/04/25 02:28:59;;;;;;;;;;;;;;;4.83;nan;99152.56;5041744;28;19959;-76
2023/04/25 02:31:43;;;;;;;;;;;;;;;4.88;nan;99155.50;5036376;28;19939;-76
2023/04/25 02:34:27;;;;;;;;;;;;;;;4.83;nan;99153.38;5042440;28;19920;-76
2023/04/25 02:37:11;;;;;;;;;;;;;;;4.84;nan;99164.59;5045693;28;19915;-76
2023/04/25 02:39:55;;;;;;;;;;;;;;;4.75;nan;99165.53;5042087;28;19967;-76
2023/04/25 02:42:39;;;;;;;;;;;;;;;4.84;nan;99156.78;5040744;28;20002;-76
2023/04/25 02:45:24;;;;;;;;;;;;;;;4.61;nan;99157.31;5041341;28;19965;-77
2023/04/25 02:48:08;;;;;;;;;;;;;;;4.50;nan;99157.53;5035511;28;19919;-77
2023/04/25 02:50:52;;;;;;;;;;;;;;;4.49;nan;99166.31;5039094;28;19928;-77
2023/04/25 02:53:36;;;;;;;;;;;;;;;4.58;nan;99166.22;5041502;28;19920;-76
2023/04/25 02:56:20;;;;;;;;;;;;;;;4.60;nan;99168.69;5040411;28;20370;-76
2023/04/25 02:59:04;;;;;;;;;;;;;;;4.68;nan;99167.91;5039615;28;20045;-77
2023/04/25 03:01:48;;;;;;;;;;;;;;;4.83;nan;99162.97;5043857;28;19938;-76
2023/04/25 03:04:33;;;;;;;;;;;;;;;4.87;nan;99159.06;5035528;28;20386;-77
2023/04/25 03:07:17;;;;;;;;;;;;;;;4.87;nan;99159.06;5037186;28;20494;-77
2023/04/25 03:10:02;;;;;;;;;;;;;;;4.84;nan;99162.81;5043406;28;19999;-77
2023/04/25 03:12:45;;;;;;;;;;;;;;;4.54;nan;99156.31;5039755;28;19922;-78
2023/04/25 03:15:31;;;;;;;;;;;;;;;4.63;nan;99165.78;5037566;28;19969;-77
2023/04/25 03:18:14;;;;;;;;;;;;;;;4.62;nan;99169.34;5039621;28;20325;-78
2023/04/25 03:20:58;;;;;;;;;;;;;;;4.68;nan;99175.72;5040435;28;19963;-78
2023/04/25 03:23:42;;;;;;;;;;;;;;;4.46;nan;99184.81;5040405;28;19931;-80
2023/04/25 03:26:26;;;;;;;;;;;;;;;4.69;nan;99177.34;5036029;28;19974;-79
2023/04/25 03:29:11;;;;;;;;;;;;;;;4.49;nan;99184.50;5044187;28;20382;-79
2023/04/25 03:31:55;;;;;;;;;;;;;;;4.55;nan;99176.13;5041031;28;19983;-79
2023/04/25 03:34:39;;;;;;;;;;;;;;;4.55;nan;99186.53;5038198;28;19919;-80
2023/04/25 03:37:23;;;;;;;;;;;;;;;4.65;nan;99176.03;5040334;28;19951;-79
2023/04/25 03:40:07;;;;;;;;;;;;;;;4.58;nan;99168.03;5037648;28;19928;-79
2023/04/25 03:42:51;;;;;;;;;;;;;;;4.63;nan;99183.97;5039510;28;20313;-77
2023/04/25 03:45:35;;;;;;;;;;;;;;;4.40;nan;99181.88;5041692;28;19962;-78
2023/04/25 03:48:24;;;;;;;;;;;;;;;4.37;nan;99182.16;5040584;28;19924;-78
2023/04/25 03:51:08;;;;;;;;;;;;;;;4.37;nan;99184.78;5044746;28;20343;-79
2023/04/25 03:53:52;;;;;;;;;;;;;;;4.72;nan;99180.47;5037425;28;19992;-78
2023/04/25 03:56:36;;;;;;;;;;;;;;;4.43;nan;99175.56;5038537;28;19935;-77
2023/04/25 03:59:20;;;;;;;;;;;;;;;4.30;nan;99183.72;5039089;28;19920;-78
2023/04/25 04:02:04;;;;;;;;;;;;;;;4.68;nan;99180.91;5038212;28;19927;-77
2023/04/25 04:04:48;;;;;;;;;;;;;;;4.34;nan;99185.06;5034945;28;19932;-77
2023/04/25 04:07:33;;;;;;;;;;;;;;;4.16;nan;99185.06;5037627;28;19973;-78
2023/04/25 04:10:16;;;;;;;;;;;;;;;4.08;nan;99191.00;5040212;28;19927;-78
2023/04/25 04:13:00;;;;;;;;;;;;;;;4.09;nan;99182.25;5039774;28;20347;-79
2023/04/25 04:15:44;;;;;;;;;;;;;;;4.06;nan;99184.34;5040479;28;20434;-78
2023/04/25 04:18:28;;;;;;;;;;;;;;;4.20;nan;99189.00;5036072;28;21893;-78
2023/04/25 04:21:12;;;;;;;;;;;;;;;4.36;nan;99196.13;5042395;28;19927;-78
2023/04/25 04:23:59;;;;;;;;;;;;;;;4.17;nan;99193.69;5034870;28;19928;-78
2023/04/25 04:26:44;;;;;;;;;;;;;;;4.25;nan;99201.53;5042146;28;19924;-78
2023/04/25 04:29:29;;;;;;;;;;;;;;;4.07;nan;99201.56;5034323;28;19919;-77
2023/04/25 04:32:13;;;;;;;;;;;;;;;4.14;nan;99203.41;5035845;28;19955;-76
2023/04/25 04:34:57;;;;;;;;;;;;;;;4.29;nan;99200.28;5043822;28;19919;-77
2023/04/25 04:37:41;;;;;;;;;;;;;;;3.91;nan;99204.78;5038877;28;19919;-76
2023/04/25 04:40:25;;;;;;;;;;;;;;;4.03;nan;99211.41;5038314;28;19920;-76
2023/04/25 04:43:10;;;;;;;;;;;;;;;4.22;nan;99209.66;5039352;28;19920;-77
2023/04/25 04:45:56;;;;;;;;;;;;;;;4.05;nan;99232.06;5034506;28;19919;-76
2023/04/25 04:48:40;;;;;;;;;;;;;;;3.97;nan;99228.41;5039194;28;19915;-78
2023/04/25 04:51:24;;;;;;;;;;;;;;;3.97;nan;99220.63;5041778;28;20424;-78
2023/04/25 04:54:07;;;;;;;;;;;;;;;3.98;nan;99226.63;5040466;28;19961;-78
2023/04/25 04:56:52;;;;;;;;;;;;;;;4.21;nan;99221.81;5039948;28;20386;-77
2023/04/25 04:59:36;;;;;;;;;;;;;;;4.20;nan;99232.38;5037565;28;20004;-79
2023/04/25 05:02:20;;;;;;;;;;;;;;;4.28;nan;99227.22;5037996;28;19923;-77
2023/04/25 05:05:04;;;;;;;;;;;;;;;4.31;nan;99226.94;5039258;28;19920;-77
2023/04/25 05:07:48;;;;;;;;;;;;;;;4.05;nan;99232.06;5046651;28;20381;-77
2023/04/25 05:10:32;;;;;;;;;;;;;;;4.31;nan;99233.91;5046379;28;20439;-76
2023/04/25 05:13:16;;;;;;;;;;;;;;;4.31;nan;99232.13;5042541;28;20391;-76
2023/04/25 05:16:00;;;;;;;;;;;;;;;4.35;nan;99230.88;5042116;28;19942;-77
2023/04/25 05:18:44;;;;;;;;;;;;;;;4.46;nan;99229.00;5045456;28;20004;-78
2023/04/25 05:21:28;;;;;;;;;;;;;;;4.32;nan;99233.75;5037773;28;20019;-78
2023/04/25 05:24:12;;;;;;;;;;;;;;;4.30;nan;99235.69;5040801;28;19924;-77
2023/04/25 05:26:56;;;;;;;;;;;;;;;4.21;nan;99231.41;5038294;28;19919;-78
2023/04/25 05:29:40;;;;;;;;;;;;;;;4.41;nan;99235.47;5041666;28;19967;-78
2023/04/25 05:32:24;;;;;;;;;;;;;;;4.50;nan;99240.72;5035742;28;19923;-78
2023/04/25 05:35:08;;;;;;;;;;;;;;;4.51;nan;99237.16;5044753;28;19978;-78
2023/04/25 05:37:52;;;;;;;;;;;;;;;4.43;nan;99235.34;5038000;28;19998;-78
2023/04/25 05:40:36;;;;;;;;;;;;;;;4.72;nan;99237.69;5039824;28;19923;-78
2023/04/25 05:43:20;;;;;;;;;;;;;;;4.76;nan;99240.78;5044390;28;19924;-78
2023/04/25 05:46:04;;;;;;;;;;;;;;;4.89;nan;99240.38;5039916;28;19919;-78
2023/04/25 05:48:48;;;;;;;;;;;;;;;4.80;nan;99241.28;5040456;28;19919;-78
2023/04/25 05:51:32;;;;;;;;;;;;;;;4.53;nan;99230.06;5034920;28;19970;-77
2023/04/25 05:54:16;;;;;;;;;;;;;;;4.94;nan;99247.72;5049020;28;19919;-77
2023/04/25 05:57:00;;;;;;;;;;;;;;;5.15;nan;99244.78;5038694;28;20047;-77
2023/04/25 05:59:44;;;;;;;;;;;;;;;4.78;nan;99253.63;5038163;28;20424;-78
2023/04/25 06:02:28;;;;;;;;;;;;;;;4.93;nan;99243.50;5036891;28;20417;-78
2023/04/25 06:05:12;;;;;;;;;;;;;;;5.13;nan;99246.72;5039531;28;20425;-77
2023/04/25 06:07:56;;;;;;;;;;;;;;;5.22;nan;99243.19;5040302;28;19978;-87
2023/04/25 06:10:40;;;;;;;;;;;;;;;5.22;nan;99240.56;5040319;28;19957;-88
2023/04/25 06:13:24;;;;;;;;;;;;;;;5.51;nan;99249.84;5039508;28;20281;-87
2023/04/25 06:16:08;;;;;;;;;;;;;;;5.31;nan;99266.66;5045360;28;20290;-84
2023/04/25 06:18:52;;;;;;;;;;;;;;;5.24;nan;99267.25;5040842;28;19923;-84
2023/04/25 06:21:36;;;;;;;;;;;;;;;5.22;nan;99271.81;5043594;28;19991;-86
2023/04/25 06:24:20;;;;;;;;;;;;;;;5.42;nan;99272.41;5041574;28;19927;-87
2023/04/25 06:27:04;;;;;;;;;;;;;;;5.38;nan;99280.69;5040607;28;19919;-88
2023/04/25 06:29:48;;;;;;;;;;;;;;;5.56;nan;99278.00;5039630;28;19928;-87
2023/04/25 06:32:34;;;;;;;;;;;;;;;5.76;nan;99262.94;5038172;28;19927;-87
